createdAt,value
2019-05-01T13:39:35.295Z,43.91
2019-05-01T13:42:05.348Z,41.36
2019-05-01T13:44:34.732Z,37.11
2019-05-01T13:47:04.510Z,35.48
2019-05-01T13:49:33.997Z,34.53
2019-05-01T13:52:03.364Z,32.46
2019-05-01T13:54:32.804Z,33.14
2019-05-01T13:57:02.305Z,32.40
2019-05-01T13:59:31.628Z,31.93
2019-05-01T14:02:01.025Z,33.01
2019-05-01T14:04:30.450Z,34.22
2019-05-01T14:07:00.056Z,35.93
2019-05-01T14:09:32.084Z,36.68
2019-05-01T14:12:01.468Z,35.38
2019-05-01T14:14:30.916Z,35.54
2019-05-01T14:17:00.296Z,36.43
2019-05-01T14:19:29.801Z,37.02
2019-05-01T14:22:24.216Z,36.66
2019-05-01T14:24:56.586Z,37.62
2019-05-01T14:27:25.969Z,38.16
2019-05-01T14:29:55.448Z,38.09
2019-05-01T14:32:24.993Z,38.68
2019-05-01T14:34:54.406Z,39.72
2019-05-01T14:37:29.647Z,38.94
2019-05-01T14:39:55.119Z,39.45
2019-05-01T14:42:24.558Z,39.46
2019-05-01T14:44:53.932Z,39.36
2019-05-01T14:47:23.352Z,38.91
2019-05-01T14:49:52.763Z,39.47
2019-05-01T14:52:22.190Z,39.25
2019-05-01T14:54:51.631Z,39.89
2019-05-01T14:57:21.895Z,39.42
2019-05-01T14:59:51.285Z,38.35
2019-05-01T15:02:20.656Z,39.49
2019-05-01T15:04:50.152Z,39.87
2019-05-01T15:07:19.590Z,40.18
2019-05-01T15:09:49.223Z,39.93
2019-05-01T15:12:18.719Z,39.77
2019-05-01T15:15:09.981Z,38.66
2019-05-01T15:17:47.042Z,39.52
2019-05-01T15:20:16.438Z,38.94
2019-05-01T15:22:45.820Z,39.83
2019-05-01T15:25:15.272Z,40.23
2019-05-01T15:27:44.727Z,39.39
2019-05-01T15:30:18.267Z,38.21
2019-05-01T15:32:47.672Z,39.08
2019-05-01T15:35:17.201Z,38.68
2019-05-01T15:37:56.478Z,39.03
2019-05-01T15:40:30.180Z,39.40
2019-05-01T15:43:14.063Z,37.75
2019-05-01T15:45:43.469Z,38.58
2019-05-01T15:48:12.844Z,38.58
2019-05-01T15:50:44.727Z,38.78
2019-05-01T15:53:13.424Z,39.55
2019-05-01T15:55:42.835Z,39.16
2019-05-01T15:58:12.350Z,38.98
2019-05-01T16:00:41.766Z,40.06
2019-05-01T16:03:11.180Z,40.77
2019-05-01T16:05:40.556Z,39.92
2019-05-01T16:08:10.178Z,40.21
2019-05-01T16:10:47.683Z,40.21
2019-05-01T16:13:17.085Z,40.72
2019-05-01T16:15:46.453Z,41.28
2019-05-01T16:18:15.936Z,41.71
2019-05-01T16:20:46.181Z,42.13
2019-05-01T16:23:15.586Z,42.26
2019-05-01T16:25:45.010Z,41.17
2019-05-01T16:28:14.428Z,42.41
2019-05-01T16:30:44.002Z,41.02
2019-05-01T16:33:13.367Z,40.93
2019-05-01T16:35:42.939Z,41.55
2019-05-01T16:38:23.229Z,41.89
2019-05-01T16:40:59.665Z,42.14
2019-05-01T16:43:29.086Z,41.67
2019-05-01T16:45:59.708Z,41.48
2019-05-01T16:48:29.154Z,43.48
2019-05-01T16:50:58.622Z,42.00
2019-05-01T16:53:28.023Z,41.16
2019-05-01T16:55:57.609Z,39.77
2019-05-01T16:58:27.533Z,39.63
2019-05-01T17:01:04.278Z,39.12
2019-05-01T17:04:05.230Z,39.25
2019-05-01T17:07:08.772Z,38.59
2019-05-01T17:09:56.284Z,37.25
2019-05-01T17:12:30.376Z,36.29
2019-05-01T17:14:59.925Z,36.89
2019-05-01T17:17:29.851Z,37.38
2019-05-01T17:19:59.226Z,36.93
2019-05-01T17:22:28.655Z,36.86
2019-05-01T17:24:58.417Z,37.52
2019-05-01T17:27:27.893Z,38.68
2019-05-01T17:29:57.761Z,38.03
2019-05-01T17:32:33.579Z,37.21
2019-05-01T17:35:06.651Z,37.65
2019-05-01T17:37:34.098Z,38.26
2019-05-01T17:40:03.894Z,38.13
2019-05-01T17:42:37.643Z,38.67
2019-05-01T17:45:04.658Z,39.24
2019-05-01T17:47:34.050Z,39.50
2019-05-01T17:50:03.508Z,40.06
2019-05-01T17:52:33.133Z,40.08
2019-05-01T17:55:02.604Z,40.45
2019-05-01T17:57:33.803Z,40.92
2019-05-01T18:00:05.588Z,41.95
2019-05-01T18:02:45.810Z,43.13
2019-05-01T18:05:33.228Z,43.43
2019-05-01T18:08:02.652Z,44.49
2019-05-01T18:10:34.097Z,44.47
2019-05-01T18:13:03.184Z,44.58
2019-05-01T18:15:32.574Z,45.35
2019-05-01T18:18:01.994Z,45.87
2019-05-01T18:20:31.498Z,46.57
2019-05-01T18:23:13.528Z,46.59
2019-05-01T18:25:49.853Z,46.77
2019-05-01T18:28:53.654Z,47.26
2019-05-01T18:31:28.005Z,47.72
2019-05-01T18:33:56.982Z,47.85
2019-05-01T18:36:33.990Z,48.30
2019-05-01T18:39:17.362Z,48.73
2019-05-01T18:41:52.960Z,48.94
2019-05-01T18:44:22.618Z,49.26
2019-05-01T18:46:52.024Z,49.72
2019-05-01T18:49:21.523Z,49.86
2019-05-01T18:51:51.035Z,50.41
2019-05-01T18:54:20.917Z,51.10
2019-05-01T18:56:50.520Z,52.87
2019-05-01T18:59:20.168Z,54.13
2019-05-01T19:01:49.851Z,54.65
2019-05-01T19:04:23.490Z,55.16
2019-05-01T19:06:50.633Z,55.78
2019-05-01T19:09:29.887Z,55.97
2019-05-01T19:11:51.392Z,55.90
2019-05-01T19:14:23.450Z,55.70
2019-05-01T19:16:53.459Z,56.44
2019-05-01T19:19:22.995Z,56.45
2019-05-01T19:21:52.537Z,57.17
2019-05-01T19:24:22.436Z,57.34
2019-05-01T19:26:51.899Z,58.31
2019-05-01T19:29:21.587Z,58.22
2019-05-01T19:31:51.274Z,58.35
2019-05-01T19:34:20.772Z,58.45
2019-05-01T19:36:51.573Z,58.70
2019-05-01T19:39:21.650Z,59.14
2019-05-01T19:41:54.328Z,60.38
2019-05-01T19:44:22.956Z,60.44
2019-05-01T19:46:52.615Z,60.36
2019-05-01T19:49:24.773Z,60.43
2019-05-01T19:51:55.562Z,60.73
2019-05-01T19:54:28.018Z,61.16
2019-05-01T19:56:55.788Z,61.37
2019-05-01T19:59:25.688Z,61.61
2019-05-01T20:01:55.318Z,61.80
2019-05-01T20:04:24.857Z,62.47
2019-05-01T20:06:53.536Z,62.52
2019-05-01T20:09:23.571Z,62.71
2019-05-01T20:11:53.234Z,63.13
2019-05-01T20:14:22.675Z,63.07
2019-05-01T20:16:52.305Z,63.34
2019-05-01T20:19:21.812Z,63.63
2019-05-01T20:21:51.211Z,63.68
2019-05-01T20:24:20.977Z,64.78
2019-05-01T20:26:50.407Z,64.93
2019-05-01T20:29:20.097Z,65.41
2019-05-01T20:31:50.810Z,65.84
2019-05-01T20:34:20.727Z,66.52
2019-05-01T20:36:50.311Z,66.86
2019-05-01T20:39:19.804Z,67.73
2019-05-01T20:41:49.267Z,68.50
2019-05-01T20:44:23.589Z,68.46
2019-05-01T20:46:49.843Z,68.88
2019-05-01T20:49:19.993Z,69.04
2019-05-01T20:51:49.584Z,69.28
2019-05-01T20:54:19.009Z,69.76
2019-05-01T20:56:56.818Z,70.63
2019-05-01T20:59:26.377Z,71.13
2019-05-01T21:01:59.094Z,71.70
2019-05-01T21:04:45.125Z,72.02
2019-05-01T21:07:21.397Z,72.29
2019-05-01T21:09:56.849Z,72.34
2019-05-01T21:12:22.129Z,72.41
2019-05-01T21:14:51.716Z,72.63
2019-05-01T21:17:21.098Z,72.82
2019-05-01T21:19:50.507Z,73.19
2019-05-01T21:22:19.900Z,74.04
2019-05-01T21:24:49.428Z,74.27
2019-05-01T21:27:18.809Z,74.82
2019-05-01T21:29:48.210Z,74.76
2019-05-01T21:32:18.171Z,74.55
2019-05-01T21:34:48.744Z,74.48
2019-05-01T21:37:18.133Z,74.60
2019-05-01T21:39:47.602Z,74.81
2019-05-01T21:42:16.991Z,74.87
2019-05-01T21:44:46.426Z,74.82
2019-05-01T21:47:15.811Z,75.12
2019-05-01T21:49:45.365Z,75.15
2019-05-01T21:52:17.880Z,75.36
2019-05-01T21:54:50.274Z,75.63
2019-05-01T21:57:19.135Z,75.84
2019-05-01T21:59:48.385Z,75.97
2019-05-01T22:02:17.953Z,76.29
2019-05-01T22:04:47.339Z,76.67
2019-05-01T22:07:16.821Z,77.01
2019-05-01T22:09:50.544Z,77.15
2019-05-01T22:12:17.347Z,77.33
2019-05-01T22:14:56.653Z,77.48
2019-05-01T22:17:57.280Z,77.89
2019-05-01T22:20:33.861Z,77.89
2019-05-01T22:23:06.184Z,77.92
2019-05-01T22:25:39.456Z,78.42
2019-05-01T22:28:20.051Z,78.62
2019-05-01T22:31:07.423Z,78.81
2019-05-01T22:33:37.309Z,79.13
2019-05-01T22:36:06.775Z,78.90
2019-05-01T22:38:36.357Z,78.82
2019-05-01T22:41:12.804Z,78.34
2019-05-01T22:43:42.327Z,78.57
2019-05-01T22:46:19.092Z,78.50
2019-05-01T22:48:48.579Z,78.58
2019-05-01T22:51:21.633Z,78.83
2019-05-01T22:53:57.296Z,78.64
2019-05-01T22:56:26.896Z,79.03
2019-05-01T22:58:56.283Z,78.90
2019-05-01T23:01:26.825Z,79.14
2019-05-01T23:04:01.699Z,79.27
2019-05-01T23:06:31.514Z,79.51
2019-05-01T23:09:00.885Z,79.26
2019-05-01T23:11:32.584Z,78.92
2019-05-01T23:14:01.980Z,79.01
2019-05-01T23:16:36.475Z,79.32
2019-05-01T23:19:05.875Z,79.51
2019-05-01T23:21:35.972Z,79.86
2019-05-01T23:24:06.597Z,79.86
2019-05-01T23:26:36.299Z,79.66
2019-05-01T23:29:05.688Z,79.56
2019-05-01T23:31:35.183Z,79.47
2019-05-01T23:34:04.768Z,79.51
2019-05-01T23:36:34.172Z,79.58
2019-05-01T23:39:05.111Z,79.88
2019-05-01T23:41:45.139Z,79.88
2019-05-01T23:44:06.079Z,79.70
2019-05-01T23:46:35.465Z,79.52
2019-05-01T23:49:04.836Z,79.33
2019-05-01T23:51:34.275Z,79.30
2019-05-01T23:54:03.704Z,79.44
2019-05-01T23:56:35.152Z,79.39
2019-05-01T23:59:04.730Z,79.42
